sensor_id;sensor_type;location;lat;lon;timestamp;P1;durP1;ratioP1;P2;durP2;ratioP2
22441;SDS011;11388;54.456;9.752;2023-05-10T00:02:06;3.67;;;1.88;;
22441;SDS011;11388;54.456;9.752;2023-05-10T00:04:32;5.00;;;2.08;;
22441;SDS011;11388;54.456;9.752;2023-05-10T00:06:58;4.10;;;2.05;;
22441;SDS011;11388;54.456;9.752;2023-05-10T00:09:23;5.47;;;2.15;;
22441;SDS011;11388;54.456;9.752;2023-05-10T00:11:49;5.60;;;2.10;;
22441;SDS011;11388;54.456;9.752;2023-05-10T00:14:15;3.67;;;2.10;;
22441;SDS011;11388;54.456;9.752;2023-05-10T00:16:41;3.55;;;2.03;;
22441;SDS011;11388;54.456;9.752;2023-05-10T00:19:06;5.07;;;1.98;;
22441;SDS011;11388;54.456;9.752;2023-05-10T00:21:32;3.35;;;1.90;;
22441;SDS011;11388;54.456;9.752;2023-05-10T00:23:58;3.72;;;2.03;;
22441;SDS011;11388;54.456;9.752;2023-05-10T00:26:24;7.13;;;2.20;;
22441;SDS011;11388;54.456;9.752;2023-05-10T00:28:50;4.57;;;2.10;;
22441;SDS011;11388;54.456;9.752;2023-05-10T00:31:16;4.68;;;2.20;;
22441;SDS011;11388;54.456;9.752;2023-05-10T00:33:42;6.28;;;2.03;;
22441;SDS011;11388;54.456;9.752;2023-05-10T00:36:07;4.00;;;2.00;;
22441;SDS011;11388;54.456;9.752;2023-05-10T00:38:33;6.60;;;2.00;;
22441;SDS011;11388;54.456;9.752;2023-05-10T00:40:59;6.00;;;2.10;;
22441;SDS011;11388;54.456;9.752;2023-05-10T00:43:25;6.57;;;2.28;;
22441;SDS011;11388;54.456;9.752;2023-05-10T00:45:50;5.78;;;2.10;;
22441;SDS011;11388;54.456;9.752;2023-05-10T00:48:17;4.05;;;2.10;;
22441;SDS011;11388;54.456;9.752;2023-05-10T00:50:43;3.50;;;2.03;;
22441;SDS011;11388;54.456;9.752;2023-05-10T00:53:09;7.13;;;2.17;;
22441;SDS011;11388;54.456;9.752;2023-05-10T00:55:35;3.42;;;2.10;;
22441;SDS011;11388;54.456;9.752;2023-05-10T00:58:02;5.28;;;2.08;;
22441;SDS011;11388;54.456;9.752;2023-05-10T01:00:28;3.40;;;2.10;;
22441;SDS011;11388;54.456;9.752;2023-05-10T01:02:54;6.03;;;2.25;;
22441;SDS011;11388;54.456;9.752;2023-05-10T01:05:20;5.63;;;2.30;;
22441;SDS011;11388;54.456;9.752;2023-05-10T01:07:46;5.80;;;2.42;;
22441;SDS011;11388;54.456;9.752;2023-05-10T01:10:12;6.13;;;2.15;;
22441;SDS011;11388;54.456;9.752;2023-05-10T01:12:38;5.97;;;2.10;;
22441;SDS011;11388;54.456;9.752;2023-05-10T01:15:09;6.78;;;2.30;;
22441;SDS011;11388;54.456;9.752;2023-05-10T01:17:37;5.22;;;2.40;;
22441;SDS011;11388;54.456;9.752;2023-05-10T01:20:04;5.28;;;2.47;;
22441;SDS011;11388;54.456;9.752;2023-05-10T01:22:42;3.20;;;2.20;;
22441;SDS011;11388;54.456;9.752;2023-05-10T01:42:11;5.60;;;2.83;;
22441;SDS011;11388;54.456;9.752;2023-05-10T01:44:54;4.22;;;2.30;;
22441;SDS011;11388;54.456;9.752;2023-05-10T01:50:17;4.07;;;2.30;;
22441;SDS011;11388;54.456;9.752;2023-05-10T01:52:47;9.48;;;2.50;;
22441;SDS011;11388;54.456;9.752;2023-05-10T01:55:16;4.45;;;2.60;;
22441;SDS011;11388;54.456;9.752;2023-05-10T01:57:45;5.78;;;2.60;;
22441;SDS011;11388;54.456;9.752;2023-05-10T02:00:13;4.47;;;2.28;;
22441;SDS011;11388;54.456;9.752;2023-05-10T02:02:42;5.47;;;2.30;;
22441;SDS011;11388;54.456;9.752;2023-05-10T02:05:12;11.00;;;2.53;;
22441;SDS011;11388;54.456;9.752;2023-05-10T02:07:39;4.40;;;2.30;;
22441;SDS011;11388;54.456;9.752;2023-05-10T02:10:07;5.35;;;2.35;;
22441;SDS011;11388;54.456;9.752;2023-05-10T02:12:35;3.92;;;2.20;;
22441;SDS011;11388;54.456;9.752;2023-05-10T02:15:03;4.35;;;2.42;;
22441;SDS011;11388;54.456;9.752;2023-05-10T02:17:31;3.92;;;2.33;;
22441;SDS011;11388;54.456;9.752;2023-05-10T02:19:58;6.20;;;2.38;;
22441;SDS011;11388;54.456;9.752;2023-05-10T02:22:25;3.80;;;2.28;;
22441;SDS011;11388;54.456;9.752;2023-05-10T02:24:53;5.00;;;2.45;;
22441;SDS011;11388;54.456;9.752;2023-05-10T02:27:20;5.55;;;2.30;;
22441;SDS011;11388;54.456;9.752;2023-05-10T02:29:48;3.65;;;2.40;;
22441;SDS011;11388;54.456;9.752;2023-05-10T02:32:15;4.53;;;2.22;;
22441;SDS011;11388;54.456;9.752;2023-05-10T02:34:42;7.32;;;2.38;;
22441;SDS011;11388;54.456;9.752;2023-05-10T02:37:10;7.93;;;2.55;;
22441;SDS011;11388;54.456;9.752;2023-05-10T02:39:39;5.05;;;2.40;;
22441;SDS011;11388;54.456;9.752;2023-05-10T02:42:10;3.20;;;2.40;;
22441;SDS011;11388;54.456;9.752;2023-05-10T02:44:42;3.60;;;2.22;;
22441;SDS011;11388;54.456;9.752;2023-05-10T02:47:10;4.78;;;2.40;;
22441;SDS011;11388;54.456;9.752;2023-05-10T02:49:36;3.92;;;2.33;;
22441;SDS011;11388;54.456;9.752;2023-05-10T02:52:03;7.80;;;2.70;;
22441;SDS011;11388;54.456;9.752;2023-05-10T02:54:33;4.88;;;2.30;;
22441;SDS011;11388;54.456;9.752;2023-05-10T02:57:04;5.35;;;2.50;;
22441;SDS011;11388;54.456;9.752;2023-05-10T02:59:31;7.93;;;2.63;;
22441;SDS011;11388;54.456;9.752;2023-05-10T03:01:58;6.40;;;2.45;;
22441;SDS011;11388;54.456;9.752;2023-05-10T03:04:25;5.43;;;2.65;;
22441;SDS011;11388;54.456;9.752;2023-05-10T03:06:51;4.70;;;2.65;;
22441;SDS011;11388;54.456;9.752;2023-05-10T03:09:17;7.05;;;2.67;;
22441;SDS011;11388;54.456;9.752;2023-05-10T03:17:20;4.25;;;2.60;;
22441;SDS011;11388;54.456;9.752;2023-05-10T03:19:55;4.32;;;2.60;;
22441;SDS011;11388;54.456;9.752;2023-05-10T03:22:32;6.32;;;2.55;;
22441;SDS011;11388;54.456;9.752;2023-05-10T03:25:04;4.70;;;2.47;;
22441;SDS011;11388;54.456;9.752;2023-05-10T03:27:33;4.25;;;2.63;;
22441;SDS011;11388;54.456;9.752;2023-05-10T03:30:01;5.32;;;2.83;;
22441;SDS011;11388;54.456;9.752;2023-05-10T03:32:28;6.30;;;2.45;;
22441;SDS011;11388;54.456;9.752;2023-05-10T03:34:56;6.45;;;2.70;;
22441;SDS011;11388;54.456;9.752;2023-05-10T03:37:22;3.63;;;2.50;;
22441;SDS011;11388;54.456;9.752;2023-05-10T03:39:48;7.35;;;2.55;;
22441;SDS011;11388;54.456;9.752;2023-05-10T03:42:13;4.57;;;2.55;;
22441;SDS011;11388;54.456;9.752;2023-05-10T03:44:39;4.43;;;2.67;;
22441;SDS011;11388;54.456;9.752;2023-05-10T03:47:05;4.97;;;2.65;;
22441;SDS011;11388;54.456;9.752;2023-05-10T03:49:31;4.60;;;2.83;;
22441;SDS011;11388;54.456;9.752;2023-05-10T03:51:57;5.72;;;2.70;;
22441;SDS011;11388;54.456;9.752;2023-05-10T03:54:22;3.20;;;2.58;;
22441;SDS011;11388;54.456;9.752;2023-05-10T03:56:48;4.25;;;2.50;;
22441;SDS011;11388;54.456;9.752;2023-05-10T03:59:14;7.25;;;2.85;;
22441;SDS011;11388;54.456;9.752;2023-05-10T04:01:40;5.20;;;2.50;;
22441;SDS011;11388;54.456;9.752;2023-05-10T04:04:05;5.82;;;2.85;;
22441;SDS011;11388;54.456;9.752;2023-05-10T04:06:31;3.88;;;2.60;;
22441;SDS011;11388;54.456;9.752;2023-05-10T04:08:57;5.10;;;2.60;;
22441;SDS011;11388;54.456;9.752;2023-05-10T04:11:24;4.70;;;2.60;;
22441;SDS011;11388;54.456;9.752;2023-05-10T04:13:50;11.30;;;2.90;;
22441;SDS011;11388;54.456;9.752;2023-05-10T04:16:16;5.13;;;2.80;;
22441;SDS011;11388;54.456;9.752;2023-05-10T04:18:42;6.32;;;3.03;;
22441;SDS011;11388;54.456;9.752;2023-05-10T04:21:11;7.32;;;2.75;;
22441;SDS011;11388;54.456;9.752;2023-05-10T04:23:38;3.72;;;2.60;;
22441;SDS011;11388;54.456;9.752;2023-05-10T04:26:04;5.82;;;3.17;;
22441;SDS011;11388;54.456;9.752;2023-05-10T04:28:29;4.38;;;2.88;;
22441;SDS011;11388;54.456;9.752;2023-05-10T04:31:05;4.25;;;2.88;;
22441;SDS011;11388;54.456;9.752;2023-05-10T04:33:32;7.40;;;3.22;;
22441;SDS011;11388;54.456;9.752;2023-05-10T04:35:58;5.13;;;3.00;;
22441;SDS011;11388;54.456;9.752;2023-05-10T04:38:24;5.25;;;2.70;;
22441;SDS011;11388;54.456;9.752;2023-05-10T04:40:50;6.20;;;2.72;;
22441;SDS011;11388;54.456;9.752;2023-05-10T04:43:16;7.35;;;2.90;;
22441;SDS011;11388;54.456;9.752;2023-05-10T04:45:42;6.18;;;2.92;;
22441;SDS011;11388;54.456;9.752;2023-05-10T04:48:07;5.25;;;3.00;;
22441;SDS011;11388;54.456;9.752;2023-05-10T04:50:33;6.10;;;2.88;;
22441;SDS011;11388;54.456;9.752;2023-05-10T04:52:59;4.35;;;2.70;;
22441;SDS011;11388;54.456;9.752;2023-05-10T04:57:53;9.50;;;2.90;;
22441;SDS011;11388;54.456;9.752;2023-05-10T05:00:21;4.53;;;2.90;;
22441;SDS011;11388;54.456;9.752;2023-05-10T05:02:48;5.40;;;2.83;;
22441;SDS011;11388;54.456;9.752;2023-05-10T05:08:10;4.20;;;2.60;;
22441;SDS011;11388;54.456;9.752;2023-05-10T05:10:36;4.82;;;2.83;;
22441;SDS011;11388;54.456;9.752;2023-05-10T05:13:02;7.85;;;2.90;;
22441;SDS011;11388;54.456;9.752;2023-05-10T05:15:28;3.42;;;2.67;;
22441;SDS011;11388;54.456;9.752;2023-05-10T05:17:55;6.50;;;2.83;;
22441;SDS011;11388;54.456;9.752;2023-05-10T05:20:21;3.42;;;2.70;;
22441;SDS011;11388;54.456;9.752;2023-05-10T05:22:47;6.60;;;2.80;;
22441;SDS011;11388;54.456;9.752;2023-05-10T05:25:13;4.90;;;2.92;;
22441;SDS011;11388;54.456;9.752;2023-05-10T05:27:40;7.40;;;3.15;;
22441;SDS011;11388;54.456;9.752;2023-05-10T05:30:05;9.95;;;3.33;;
22441;SDS011;11388;54.456;9.752;2023-05-10T05:32:32;4.88;;;2.80;;
22441;SDS011;11388;54.456;9.752;2023-05-10T05:34:57;5.18;;;3.00;;
22441;SDS011;11388;54.456;9.752;2023-05-10T05:37:23;4.13;;;2.80;;
22441;SDS011;11388;54.456;9.752;2023-05-10T05:39:49;6.00;;;2.90;;
22441;SDS011;11388;54.456;9.752;2023-05-10T05:42:15;5.00;;;3.00;;
22441;SDS011;11388;54.456;9.752;2023-05-10T05:44:42;7.15;;;3.10;;
22441;SDS011;11388;54.456;9.752;2023-05-10T05:47:08;4.15;;;2.80;;
22441;SDS011;11388;54.456;9.752;2023-05-10T05:49:34;7.60;;;2.85;;
22441;SDS011;11388;54.456;9.752;2023-05-10T05:52:00;4.65;;;2.88;;
22441;SDS011;11388;54.456;9.752;2023-05-10T05:54:27;5.35;;;3.10;;
22441;SDS011;11388;54.456;9.752;2023-05-10T05:56:56;4.85;;;3.08;;
22441;SDS011;11388;54.456;9.752;2023-05-10T05:59:23;4.95;;;3.10;;
22441;SDS011;11388;54.456;9.752;2023-05-10T06:01:49;5.82;;;3.08;;
22441;SDS011;11388;54.456;9.752;2023-05-10T06:04:15;6.05;;;2.97;;
22441;SDS011;11388;54.456;9.752;2023-05-10T06:06:41;3.65;;;2.83;;
22441;SDS011;11388;54.456;9.752;2023-05-10T06:09:07;3.75;;;2.97;;
22441;SDS011;11388;54.456;9.752;2023-05-10T06:11:33;5.78;;;3.33;;
22441;SDS011;11388;54.456;9.752;2023-05-10T06:13:59;4.90;;;3.00;;
22441;SDS011;11388;54.456;9.752;2023-05-10T06:16:26;6.70;;;3.20;;
22441;SDS011;11388;54.456;9.752;2023-05-10T06:18:53;4.40;;;2.80;;
22441;SDS011;11388;54.456;9.752;2023-05-10T06:21:19;5.30;;;3.22;;
22441;SDS011;11388;54.456;9.752;2023-05-10T06:23:44;4.30;;;2.78;;
22441;SDS011;11388;54.456;9.752;2023-05-10T06:26:10;5.85;;;3.05;;
22441;SDS011;11388;54.456;9.752;2023-05-10T06:28:36;5.85;;;2.78;;
22441;SDS011;11388;54.456;9.752;2023-05-10T06:31:04;4.20;;;3.00;;
22441;SDS011;11388;54.456;9.752;2023-05-10T06:33:30;4.18;;;2.90;;
22441;SDS011;11388;54.456;9.752;2023-05-10T06:36:08;4.30;;;2.80;;
22441;SDS011;11388;54.456;9.752;2023-05-10T06:38:34;7.50;;;3.08;;
22441;SDS011;11388;54.456;9.752;2023-05-10T06:40:59;6.90;;;2.90;;
22441;SDS011;11388;54.456;9.752;2023-05-10T06:43:25;5.32;;;2.78;;
22441;SDS011;11388;54.456;9.752;2023-05-10T06:45:53;4.90;;;2.97;;
22441;SDS011;11388;54.456;9.752;2023-05-10T06:48:52;5.78;;;3.00;;
22441;SDS011;11388;54.456;9.752;2023-05-10T06:51:11;8.63;;;3.38;;
22441;SDS011;11388;54.456;9.752;2023-05-10T06:53:36;4.25;;;2.90;;
22441;SDS011;11388;54.456;9.752;2023-05-10T06:56:02;4.78;;;2.70;;
22441;SDS011;11388;54.456;9.752;2023-05-10T06:58:28;5.65;;;3.00;;
22441;SDS011;11388;54.456;9.752;2023-05-10T07:00:54;4.25;;;2.92;;
22441;SDS011;11388;54.456;9.752;2023-05-10T07:03:19;5.40;;;3.00;;
22441;SDS011;11388;54.456;9.752;2023-05-10T07:05:45;4.35;;;2.88;;
22441;SDS011;11388;54.456;9.752;2023-05-10T07:08:11;4.18;;;3.10;;
22441;SDS011;11388;54.456;9.752;2023-05-10T07:10:36;4.00;;;2.90;;
22441;SDS011;11388;54.456;9.752;2023-05-10T07:13:02;5.45;;;2.72;;
22441;SDS011;11388;54.456;9.752;2023-05-10T07:15:46;4.70;;;2.75;;
22441;SDS011;11388;54.456;9.752;2023-05-10T07:18:11;4.68;;;2.80;;
22441;SDS011;11388;54.456;9.752;2023-05-10T07:20:37;5.47;;;2.70;;
22441;SDS011;11388;54.456;9.752;2023-05-10T07:23:03;5.43;;;2.85;;
22441;SDS011;11388;54.456;9.752;2023-05-10T07:25:28;5.85;;;2.97;;
22441;SDS011;11388;54.456;9.752;2023-05-10T07:27:54;4.35;;;2.90;;
22441;SDS011;11388;54.456;9.752;2023-05-10T07:30:20;3.55;;;2.83;;
22441;SDS011;11388;54.456;9.752;2023-05-10T07:32:45;4.10;;;2.60;;
22441;SDS011;11388;54.456;9.752;2023-05-10T07:35:11;6.10;;;2.90;;
22441;SDS011;11388;54.456;9.752;2023-05-10T07:37:37;6.00;;;3.20;;
22441;SDS011;11388;54.456;9.752;2023-05-10T07:40:02;4.53;;;2.67;;
22441;SDS011;11388;54.456;9.752;2023-05-10T07:42:29;5.13;;;2.72;;
22441;SDS011;11388;54.456;9.752;2023-05-10T07:44:54;3.38;;;2.78;;
22441;SDS011;11388;54.456;9.752;2023-05-10T07:47:20;3.58;;;3.03;;
22441;SDS011;11388;54.456;9.752;2023-05-10T07:49:46;6.13;;;3.00;;
22441;SDS011;11388;54.456;9.752;2023-05-10T07:52:11;6.32;;;3.42;;
22441;SDS011;11388;54.456;9.752;2023-05-10T07:54:37;4.40;;;3.47;;
22441;SDS011;11388;54.456;9.752;2023-05-10T07:57:03;5.28;;;3.10;;
22441;SDS011;11388;54.456;9.752;2023-05-10T07:59:32;6.22;;;3.40;;
22441;SDS011;11388;54.456;9.752;2023-05-10T08:01:58;5.80;;;3.15;;
22441;SDS011;11388;54.456;9.752;2023-05-10T08:04:23;4.18;;;3.13;;
22441;SDS011;11388;54.456;9.752;2023-05-10T08:06:49;6.00;;;2.97;;
22441;SDS011;11388;54.456;9.752;2023-05-10T08:09:15;6.40;;;3.28;;
22441;SDS011;11388;54.456;9.752;2023-05-10T08:11:41;6.00;;;3.10;;
22441;SDS011;11388;54.456;9.752;2023-05-10T08:14:07;3.50;;;2.85;;
22441;SDS011;11388;54.456;9.752;2023-05-10T08:16:32;5.65;;;3.40;;
22441;SDS011;11388;54.456;9.752;2023-05-10T08:18:59;4.35;;;2.90;;
22441;SDS011;11388;54.456;9.752;2023-05-10T08:21:25;5.10;;;2.92;;
22441;SDS011;11388;54.456;9.752;2023-05-10T08:23:51;4.82;;;3.20;;
22441;SDS011;11388;54.456;9.752;2023-05-10T08:26:17;4.47;;;2.90;;
22441;SDS011;11388;54.456;9.752;2023-05-10T08:28:42;5.35;;;3.00;;
22441;SDS011;11388;54.456;9.752;2023-05-10T08:31:08;5.70;;;3.00;;
22441;SDS011;11388;54.456;9.752;2023-05-10T08:33:34;7.00;;;3.30;;
22441;SDS011;11388;54.456;9.752;2023-05-10T08:35:59;7.07;;;2.85;;
22441;SDS011;11388;54.456;9.752;2023-05-10T08:38:25;3.72;;;2.83;;
22441;SDS011;11388;54.456;9.752;2023-05-10T08:40:51;3.72;;;3.10;;
22441;SDS011;11388;54.456;9.752;2023-05-10T08:43:21;5.55;;;3.30;;
22441;SDS011;11388;54.456;9.752;2023-05-10T08:45:51;3.95;;;3.20;;
22441;SDS011;11388;54.456;9.752;2023-05-10T08:48:19;5.07;;;3.15;;
22441;SDS011;11388;54.456;9.752;2023-05-10T08:50:47;5.35;;;2.95;;
22441;SDS011;11388;54.456;9.752;2023-05-10T08:53:17;5.85;;;3.13;;
22441;SDS011;11388;54.456;9.752;2023-05-10T08:55:44;7.57;;;3.33;;
22441;SDS011;11388;54.456;9.752;2023-05-10T08:58:12;8.30;;;3.08;;
22441;SDS011;11388;54.456;9.752;2023-05-10T09:00:37;5.55;;;3.20;;
22441;SDS011;11388;54.456;9.752;2023-05-10T09:03:03;9.77;;;3.30;;
22441;SDS011;11388;54.456;9.752;2023-05-10T09:05:30;5.15;;;3.10;;
22441;SDS011;11388;54.456;9.752;2023-05-10T09:07:56;6.10;;;3.30;;
22441;SDS011;11388;54.456;9.752;2023-05-10T09:10:23;3.83;;;3.10;;
22441;SDS011;11388;54.456;9.752;2023-05-10T09:12:52;8.27;;;3.30;;
22441;SDS011;11388;54.456;9.752;2023-05-10T09:15:20;4.75;;;3.15;;
22441;SDS011;11388;54.456;9.752;2023-05-10T09:17:46;5.07;;;3.00;;
22441;SDS011;11388;54.456;9.752;2023-05-10T09:20:14;4.22;;;2.70;;
22441;SDS011;11388;54.456;9.752;2023-05-10T09:22:39;5.50;;;2.83;;
22441;SDS011;11388;54.456;9.752;2023-05-10T09:27:34;3.53;;;2.90;;
22441;SDS011;11388;54.456;9.752;2023-05-10T09:30:01;5.05;;;3.10;;
22441;SDS011;11388;54.456;9.752;2023-05-10T09:35:18;5.03;;;3.00;;
22441;SDS011;11388;54.456;9.752;2023-05-10T09:37:46;6.90;;;2.70;;
22441;SDS011;11388;54.456;9.752;2023-05-10T09:40:13;5.28;;;3.10;;
22441;SDS011;11388;54.456;9.752;2023-05-10T09:42:41;5.88;;;3.00;;
22441;SDS011;11388;54.456;9.752;2023-05-10T09:45:08;5.05;;;3.03;;
22441;SDS011;11388;54.456;9.752;2023-05-10T09:47:34;5.15;;;2.95;;
22441;SDS011;11388;54.456;9.752;2023-05-10T09:50:01;5.40;;;2.88;;
22441;SDS011;11388;54.456;9.752;2023-05-10T09:52:45;5.95;;;3.20;;
22441;SDS011;11388;54.456;9.752;2023-05-10T09:58:15;4.57;;;3.20;;
22441;SDS011;11388;54.456;9.752;2023-05-10T10:00:45;5.85;;;2.90;;
22441;SDS011;11388;54.456;9.752;2023-05-10T10:03:16;4.55;;;3.28;;
22441;SDS011;11388;54.456;9.752;2023-05-10T10:05:44;4.60;;;2.83;;
22441;SDS011;11388;54.456;9.752;2023-05-10T10:08:11;5.63;;;2.92;;
22441;SDS011;11388;54.456;9.752;2023-05-10T10:10:38;4.35;;;3.00;;
22441;SDS011;11388;54.456;9.752;2023-05-10T10:13:10;6.85;;;3.08;;
22441;SDS011;11388;54.456;9.752;2023-05-10T10:15:35;4.68;;;2.70;;
22441;SDS011;11388;54.456;9.752;2023-05-10T10:18:02;4.57;;;3.05;;
22441;SDS011;11388;54.456;9.752;2023-05-10T10:20:29;4.22;;;2.90;;
22441;SDS011;11388;54.456;9.752;2023-05-10T10:22:54;4.90;;;3.08;;
22441;SDS011;11388;54.456;9.752;2023-05-10T10:25:20;4.18;;;3.00;;
22441;SDS011;11388;54.456;9.752;2023-05-10T10:35:55;5.90;;;2.90;;
22441;SDS011;11388;54.456;9.752;2023-05-10T10:38:23;3.97;;;3.03;;
22441;SDS011;11388;54.456;9.752;2023-05-10T10:41:01;4.72;;;3.08;;
22441;SDS011;11388;54.456;9.752;2023-05-10T10:43:28;8.73;;;3.10;;
22441;SDS011;11388;54.456;9.752;2023-05-10T10:46:13;5.63;;;2.95;;
22441;SDS011;11388;54.456;9.752;2023-05-10T10:48:43;5.88;;;2.90;;
22441;SDS011;11388;54.456;9.752;2023-05-10T10:51:13;5.30;;;3.00;;
22441;SDS011;11388;54.456;9.752;2023-05-10T10:53:39;4.20;;;2.95;;
22441;SDS011;11388;54.456;9.752;2023-05-10T10:56:12;4.60;;;3.10;;
22441;SDS011;11388;54.456;9.752;2023-05-10T10:58:40;5.72;;;2.95;;
22441;SDS011;11388;54.456;9.752;2023-05-10T11:01:16;7.38;;;2.97;;
22441;SDS011;11388;54.456;9.752;2023-05-10T11:06:34;4.55;;;3.13;;
22441;SDS011;11388;54.456;9.752;2023-05-10T11:09:10;3.42;;;2.80;;
22441;SDS011;11388;54.456;9.752;2023-05-10T11:11:53;4.28;;;2.80;;
22441;SDS011;11388;54.456;9.752;2023-05-10T11:14:23;6.75;;;2.90;;
22441;SDS011;11388;54.456;9.752;2023-05-10T11:16:50;4.85;;;3.00;;
22441;SDS011;11388;54.456;9.752;2023-05-10T11:19:17;10.93;;;4.38;;
22441;SDS011;11388;54.456;9.752;2023-05-10T11:24:26;5.85;;;3.30;;
22441;SDS011;11388;54.456;9.752;2023-05-10T11:26:53;5.97;;;3.28;;
22441;SDS011;11388;54.456;9.752;2023-05-10T11:29:18;5.35;;;3.35;;
22441;SDS011;11388;54.456;9.752;2023-05-10T11:31:45;4.70;;;3.35;;
22441;SDS011;11388;54.456;9.752;2023-05-10T11:34:13;4.57;;;3.10;;
22441;SDS011;11388;54.456;9.752;2023-05-10T11:36:52;4.50;;;3.28;;
22441;SDS011;11388;54.456;9.752;2023-05-10T11:39:20;6.60;;;3.40;;
22441;SDS011;11388;54.456;9.752;2023-05-10T11:41:49;5.47;;;3.17;;
22441;SDS011;11388;54.456;9.752;2023-05-10T11:44:15;8.20;;;3.40;;
22441;SDS011;11388;54.456;9.752;2023-05-10T11:46:41;5.65;;;3.30;;
22441;SDS011;11388;54.456;9.752;2023-05-10T11:49:07;4.70;;;3.20;;
22441;SDS011;11388;54.456;9.752;2023-05-10T11:51:34;4.25;;;3.20;;
22441;SDS011;11388;54.456;9.752;2023-05-10T11:54:08;5.38;;;2.80;;
22441;SDS011;11388;54.456;9.752;2023-05-10T11:56:37;4.25;;;3.40;;
22441;SDS011;11388;54.456;9.752;2023-05-10T11:59:04;5.18;;;3.03;;
22441;SDS011;11388;54.456;9.752;2023-05-10T12:01:33;8.65;;;3.60;;
22441;SDS011;11388;54.456;9.752;2023-05-10T12:04:01;6.82;;;4.07;;
22441;SDS011;11388;54.456;9.752;2023-05-10T12:06:31;4.75;;;3.88;;
22441;SDS011;11388;54.456;9.752;2023-05-10T12:09:02;6.28;;;3.65;;
22441;SDS011;11388;54.456;9.752;2023-05-10T12:11:31;5.93;;;4.65;;
22441;SDS011;11388;54.456;9.752;2023-05-10T12:14:03;5.10;;;4.40;;
22441;SDS011;11388;54.456;9.752;2023-05-10T12:16:30;9.73;;;4.60;;
22441;SDS011;11388;54.456;9.752;2023-05-10T12:18:56;7.20;;;5.00;;
22441;SDS011;11388;54.456;9.752;2023-05-10T12:21:23;6.63;;;5.10;;
22441;SDS011;11388;54.456;9.752;2023-05-10T12:23:59;6.90;;;4.82;;
22441;SDS011;11388;54.456;9.752;2023-05-10T12:26:28;8.27;;;5.30;;
22441;SDS011;11388;54.456;9.752;2023-05-10T12:28:55;7.80;;;5.18;;
22441;SDS011;11388;54.456;9.752;2023-05-10T12:31:48;6.38;;;5.60;;
22441;SDS011;11388;54.456;9.752;2023-05-10T12:34:32;8.02;;;6.40;;
22441;SDS011;11388;54.456;9.752;2023-05-10T12:40:22;7.07;;;6.03;;
22441;SDS011;11388;54.456;9.752;2023-05-10T12:42:56;7.80;;;6.50;;
22441;SDS011;11388;54.456;9.752;2023-05-10T12:45:31;9.77;;;6.72;;
22441;SDS011;11388;54.456;9.752;2023-05-10T12:47:57;7.43;;;6.72;;
22441;SDS011;11388;54.456;9.752;2023-05-10T12:50:23;9.75;;;6.57;;
22441;SDS011;11388;54.456;9.752;2023-05-10T12:52:49;6.90;;;6.20;;
22441;SDS011;11388;54.456;9.752;2023-05-10T12:55:14;7.22;;;6.32;;
22441;SDS011;11388;54.456;9.752;2023-05-10T12:57:40;7.88;;;7.00;;
22441;SDS011;11388;54.456;9.752;2023-05-10T13:00:06;7.30;;;6.60;;
22441;SDS011;11388;54.456;9.752;2023-05-10T13:02:32;7.63;;;6.70;;
22441;SDS011;11388;54.456;9.752;2023-05-10T13:04:58;7.90;;;6.35;;
22441;SDS011;11388;54.456;9.752;2023-05-10T13:07:24;7.93;;;6.53;;
22441;SDS011;11388;54.456;9.752;2023-05-10T13:09:49;8.88;;;6.47;;
22441;SDS011;11388;54.456;9.752;2023-05-10T13:12:15;8.77;;;6.70;;
22441;SDS011;11388;54.456;9.752;2023-05-10T13:14:41;8.98;;;7.07;;
22441;SDS011;11388;54.456;9.752;2023-05-10T13:17:08;7.85;;;6.97;;
22441;SDS011;11388;54.456;9.752;2023-05-10T13:19:34;7.03;;;6.28;;
22441;SDS011;11388;54.456;9.752;2023-05-10T13:22:00;7.20;;;6.50;;
22441;SDS011;11388;54.456;9.752;2023-05-10T13:24:26;7.35;;;6.63;;
22441;SDS011;11388;54.456;9.752;2023-05-10T13:26:51;7.60;;;6.80;;
22441;SDS011;11388;54.456;9.752;2023-05-10T13:29:17;8.40;;;6.70;;
22441;SDS011;11388;54.456;9.752;2023-05-10T13:31:43;7.85;;;7.05;;
22441;SDS011;11388;54.456;9.752;2023-05-10T13:34:09;9.15;;;7.30;;
22441;SDS011;11388;54.456;9.752;2023-05-10T13:36:34;9.35;;;7.07;;
22441;SDS011;11388;54.456;9.752;2023-05-10T13:39:00;8.32;;;7.43;;
22441;SDS011;11388;54.456;9.752;2023-05-10T13:41:28;10.43;;;7.05;;
22441;SDS011;11388;54.456;9.752;2023-05-10T13:43:54;8.57;;;7.30;;
22441;SDS011;11388;54.456;9.752;2023-05-10T13:46:19;7.25;;;6.55;;
22441;SDS011;11388;54.456;9.752;2023-05-10T13:48:45;8.07;;;7.28;;
22441;SDS011;11388;54.456;9.752;2023-05-10T13:51:11;8.60;;;7.28;;
22441;SDS011;11388;54.456;9.752;2023-05-10T13:53:37;7.68;;;6.80;;
22441;SDS011;11388;54.456;9.752;2023-05-10T13:56:03;8.02;;;7.20;;
22441;SDS011;11388;54.456;9.752;2023-05-10T13:58:29;8.93;;;7.03;;
22441;SDS011;11388;54.456;9.752;2023-05-10T14:00:55;8.77;;;6.95;;
22441;SDS011;11388;54.456;9.752;2023-05-10T14:03:21;10.32;;;6.85;;
22441;SDS011;11388;54.456;9.752;2023-05-10T14:05:47;7.40;;;6.68;;
22441;SDS011;11388;54.456;9.752;2023-05-10T14:08:12;7.80;;;7.00;;
22441;SDS011;11388;54.456;9.752;2023-05-10T14:10:38;7.25;;;6.55;;
22441;SDS011;11388;54.456;9.752;2023-05-10T14:13:10;7.30;;;6.60;;
22441;SDS011;11388;54.456;9.752;2023-05-10T14:15:36;8.35;;;7.32;;
22441;SDS011;11388;54.456;9.752;2023-05-10T14:18:06;7.90;;;7.10;;
22441;SDS011;11388;54.456;9.752;2023-05-10T14:20:32;9.45;;;7.07;;
22441;SDS011;11388;54.456;9.752;2023-05-10T14:22:59;8.43;;;7.50;;
22441;SDS011;11388;54.456;9.752;2023-05-10T14:25:25;9.95;;;7.32;;
22441;SDS011;11388;54.456;9.752;2023-05-10T14:27:51;8.18;;;7.40;;
22441;SDS011;11388;54.456;9.752;2023-05-10T14:30:19;8.68;;;7.78;;
22441;SDS011;11388;54.456;9.752;2023-05-10T14:32:45;7.72;;;6.95;;
22441;SDS011;11388;54.456;9.752;2023-05-10T14:35:11;8.15;;;7.10;;
22441;SDS011;11388;54.456;9.752;2023-05-10T14:37:38;8.02;;;7.22;;
22441;SDS011;11388;54.456;9.752;2023-05-10T14:40:04;8.18;;;7.38;;
22441;SDS011;11388;54.456;9.752;2023-05-10T14:42:31;7.57;;;6.72;;
22441;SDS011;11388;54.456;9.752;2023-05-10T14:45:10;10.25;;;7.43;;
22441;SDS011;11388;54.456;9.752;2023-05-10T14:47:38;7.90;;;7.10;;
22441;SDS011;11388;54.456;9.752;2023-05-10T14:50:05;7.68;;;6.90;;
22441;SDS011;11388;54.456;9.752;2023-05-10T14:52:31;7.70;;;7.00;;
22441;SDS011;11388;54.456;9.752;2023-05-10T14:57:33;6.88;;;6.28;;
22441;SDS011;11388;54.456;9.752;2023-05-10T14:59:59;7.78;;;6.53;;
22441;SDS011;11388;54.456;9.752;2023-05-10T15:02:24;7.53;;;6.80;;
22441;SDS011;11388;54.456;9.752;2023-05-10T15:04:50;7.75;;;6.45;;
22441;SDS011;11388;54.456;9.752;2023-05-10T15:07:16;7.25;;;6.53;;
22441;SDS011;11388;54.456;9.752;2023-05-10T15:09:43;6.75;;;6.10;;
22441;SDS011;11388;54.456;9.752;2023-05-10T15:12:09;7.97;;;7.00;;
22441;SDS011;11388;54.456;9.752;2023-05-10T15:14:35;6.75;;;6.13;;
22441;SDS011;11388;54.456;9.752;2023-05-10T15:17:01;6.80;;;6.20;;
22441;SDS011;11388;54.456;9.752;2023-05-10T15:19:27;6.22;;;5.63;;
22441;SDS011;11388;54.456;9.752;2023-05-10T15:21:54;6.63;;;5.55;;
22441;SDS011;11388;54.456;9.752;2023-05-10T15:24:20;5.90;;;5.15;;
22441;SDS011;11388;54.456;9.752;2023-05-10T15:26:46;5.90;;;5.28;;
22441;SDS011;11388;54.456;9.752;2023-05-10T15:29:12;6.07;;;5.20;;
22441;SDS011;11388;54.456;9.752;2023-05-10T15:31:45;6.07;;;5.20;;
22441;SDS011;11388;54.456;9.752;2023-05-10T15:34:11;5.20;;;4.68;;
22441;SDS011;11388;54.456;9.752;2023-05-10T15:36:37;5.35;;;4.63;;
22441;SDS011;11388;54.456;9.752;2023-05-10T15:39:03;6.45;;;3.28;;
22441;SDS011;11388;54.456;9.752;2023-05-10T15:41:29;2.78;;;2.55;;
22441;SDS011;11388;54.456;9.752;2023-05-10T15:43:55;3.20;;;2.65;;
22441;SDS011;11388;54.456;9.752;2023-05-10T15:46:20;4.22;;;2.70;;
22441;SDS011;11388;54.456;9.752;2023-05-10T15:48:46;3.60;;;2.70;;